Liberty Belle — WDG9632 — position and weather

sailwx.info

Track history (hours):
 
Tides and Currents Weather Stations Pressure Air Temp Water Temp Dewpoint Dewpoint Depression Visibility Wind Speed Wind Dir Waves Ship Positions

Liberty Belle

Owner: Pleasure Boat Cruise Corp., N. Ft. myers, FL. More information available from US FCC via Universal Licensing System and Coast Guard Vessel Documentation Center.

Last reported at 2018-Jan-01 08:01 UTC. Time now 2018-Jan-19 01:16 UTC.
Position N 40°41' W 074°01'.
Warning: this ship's position is 17 days out of date.

; draft 4.2 m.

Type: Passenger vessel. MMSI: 367589750.

Date/timePositionNaut miles runAvg speedWind from/ knotsBaromVisibWave heightAir tempDewpointWater temp
2018-Jan-01 08:01N 40°41' W 074°01'0 0.0
2018-Jan-01 08:01N 40°41' W 074°01'1 1.8
2018-Jan-01 07:31N 40°42' W 074°00'1 2.2
2018-Jan-01 07:00N 40°43' W 073°59'0 0.4
2018-Jan-01 06:01N 40°42' W 073°60'2 4.0
2018-Jan-01 05:31N 40°41' W 074°02'0 0.4
2018-Jan-01 05:00N 40°42' W 074°02'2 2.4
2018-Jan-01 04:01N 40°42' W 073°59'0 0.2
2018-Jan-01 03:30N 40°43' W 073°59'0 0.0
2018-Jan-01 03:00N 40°43' W 073°59'0 0.0
2018-Jan-01 02:30N 40°43' W 073°59'0 0.0
2018-Jan-01 02:00N 40°43' W 073°59'0 0.0
2018-Jan-01 01:30N 40°43' W 073°59'2 2.0
2018-Jan-01 00:30N 40°41' W 074°01'0 0.0
2017-Dec-31 20:54N 40°41' W 074°01'0 0.0
2017-Dec-31 20:24N 40°41' W 074°01'0 0.0
2017-Dec-31 20:00N 40°41' W 074°01'0 0.0
2017-Dec-31 19:29N 40°41' W 074°01'0 0.0
2017-Dec-31 19:00N 40°41' W 074°01'0 0.0
2017-Dec-31 18:30N 40°41' W 074°01'0 0.0
2017-Dec-31 17:58N 40°41' W 074°01'0 0.0
2017-Dec-31 17:29N 40°41' W 074°01'0 0.0
2017-Dec-31 16:55N 40°41' W 074°01'0 0.0
2017-Dec-31 16:30N 40°41' W 074°01'0 0.0
2017-Dec-31 15:58N 40°41' W 074°01'0 0.0
2017-Dec-31 15:29N 40°41' W 074°01'0 0.0
2017-Dec-31 14:55N 40°41' W 074°01'0 0.0
2017-Dec-31 14:30N 40°41' W 074°01'0 0.0
2017-Dec-31 13:58N 40°41' W 074°01'0 0.0
2017-Dec-31 13:29N 40°41' W 074°01'0 0.0
2017-Dec-31 12:54N 40°41' W 074°01'0 0.0
2017-Dec-31 12:28N 40°41' W 074°01'0 0.0
2017-Dec-31 11:58N 40°41' W 074°01'0 0.0
2017-Dec-31 11:26N 40°41' W 074°01'0 0.0
2017-Dec-31 10:57N 40°41' W 074°01'0 0.0
2017-Dec-31 10:24N 40°41' W 074°01'0 0.0
2017-Dec-31 09:57N 40°41' W 074°01'0 0.0
2017-Dec-31 09:29N 40°41' W 074°01'0 0.0
2017-Dec-31 08:55N 40°41' W 074°01'0 0.0
2017-Dec-31 08:28N 40°41' W 074°01'0 0.0
2017-Dec-31 07:59N 40°41' W 074°01'0 0.0
2017-Dec-31 07:29N 40°41' W 074°01'0 0.0
2017-Dec-31 07:00N 40°41' W 074°01'0 0.0
2017-Dec-31 06:23N 40°41' W 074°01'0 0.0
2017-Dec-31 05:59N 40°41' W 074°01'0 0.0
2017-Dec-31 05:26N 40°41' W 074°01'0 0.0
2017-Dec-31 04:55N 40°41' W 074°01'0 0.0
2017-Dec-31 04:28N 40°41' W 074°01'0 0.0
2017-Dec-31 03:59N 40°41' W 074°01'0 0.0
2017-Dec-31 03:29N 40°41' W 074°01'0 0.0
2017-Dec-31 02:57N 40°41' W 074°01'0 0.0
2017-Dec-31 02:29N 40°41' W 074°01'0 0.0
2017-Dec-31 01:58N 40°41' W 074°01'0 0.0
2017-Dec-31 01:29N 40°41' W 074°01'0 0.0
2017-Dec-31 00:56N 40°41' W 074°01'0 0.0
2017-Dec-31 00:25N 40°41' W 074°01'0 0.0
2017-Dec-31 00:00N 40°41' W 074°01'0 0.0
2017-Dec-30 23:29N 40°41' W 074°01'0 0.0
2017-Dec-30 22:59N 40°41' W 074°01'0 0.0
2017-Dec-30 22:23N 40°41' W 074°01'0 0.0
2017-Dec-30 21:59N 40°41' W 074°01'0 0.0
2017-Dec-30 21:27N 40°41' W 074°01'0 0.0
2017-Dec-30 20:57N 40°41' W 074°01'0 0.0
2017-Dec-30 20:23N 40°41' W 074°01'0 0.0
2017-Dec-30 19:59N 40°41' W 074°01'0 0.0
2017-Dec-30 19:26N 40°41' W 074°01'0 0.0
2017-Dec-30 18:43N 40°41' W 074°01'0 0.0
2017-Dec-30 18:24N 40°41' W 074°01'0 0.0
2017-Dec-30 18:00N 40°41' W 074°01'0 0.0
2017-Dec-30 17:19N 40°41' W 074°01'0 0.0
2017-Dec-30 16:57N 40°41' W 074°01'0 0.0
2017-Dec-30 16:23N 40°41' W 074°01'0 0.0
2017-Dec-30 15:59N 40°41' W 074°01'0 0.0
2017-Dec-30 15:29N 40°41' W 074°01'0 0.0
2017-Dec-30 14:57N 40°41' W 074°01'0 0.0
2017-Dec-30 14:25N 40°41' W 074°01'0 0.0
2017-Dec-30 13:59N 40°41' W 074°01'0 0.0
2017-Dec-30 13:27N 40°41' W 074°01'0 0.0
2017-Dec-30 12:59N 40°41' W 074°01'0 0.0
2017-Dec-30 12:28N 40°41' W 074°01'0 0.0
2017-Dec-30 12:00N 40°41' W 074°01'0 0.0
2017-Dec-30 11:27N 40°41' W 074°01'0 0.0
2017-Dec-30 10:55N 40°41' W 074°01'0 0.0
2017-Dec-30 10:23N 40°41' W 074°01'0 0.0
2017-Dec-30 09:53N 40°41' W 074°01'0 0.0
2017-Dec-30 09:27N 40°41' W 074°01'0 0.0
2017-Dec-30 08:55N 40°41' W 074°01'0 0.0
2017-Dec-30 08:28N 40°41' W 074°01'0 0.0
2017-Dec-30 07:55N 40°41' W 074°01'0 0.0
2017-Dec-30 07:26N 40°41' W 074°01'0 0.0
2017-Dec-30 06:58N 40°41' W 074°01'0 0.0
2017-Dec-30 06:25N 40°41' W 074°01'0 0.0
2017-Dec-30 05:51N 40°41' W 074°01'0 0.0
2017-Dec-30 05:27N 40°41' W 074°01'0 0.0
2017-Dec-30 04:57N 40°41' W 074°01'0 0.0
2017-Dec-30 04:30N 40°41' W 074°01'0 0.0
2017-Dec-30 03:59N 40°41' W 074°01'0 0.0
2017-Dec-30 03:28N 40°41' W 074°01'0 0.0
2017-Dec-30 02:58N 40°41' W 074°01'0 0.0
2017-Dec-30 02:23N 40°41' W 074°01'0 0.0
2017-Dec-30 02:00N 40°41' W 074°01'0 0.0
2017-Dec-30 01:26N 40°41' W 074°01'0 0.0
2017-Dec-30 00:55N 40°41' W 074°01'0 0.0
2017-Dec-30 00:23N 40°41' W 074°01'0 0.0
2017-Dec-29 23:58N 40°41' W 074°01'0 0.0
2017-Dec-29 23:30N 40°41' W 074°01'0 0.0
2017-Dec-29 23:00N 40°41' W 074°01'0 0.0
2017-Dec-29 22:25N 40°41' W 074°01'0 0.0
2017-Dec-29 21:58N 40°41' W 074°01'0 0.0
2017-Dec-29 21:27N 40°41' W 074°01'0 0.0
2017-Dec-29 20:56N 40°41' W 074°01'0 0.0
2017-Dec-29 20:30N 40°41' W 074°01'0 0.0
2017-Dec-29 19:55N 40°41' W 074°01'0 0.0
2017-Dec-29 19:27N 40°41' W 074°01'0 0.0
2017-Dec-29 18:57N 40°41' W 074°01'0 0.0
2017-Dec-29 18:27N 40°41' W 074°01'0 0.0
2017-Dec-29 17:58N 40°41' W 074°01'0 0.0
2017-Dec-29 17:28N 40°41' W 074°01'0 0.0
2017-Dec-29 16:57N 40°41' W 074°01'0 0.0
2017-Dec-29 16:25N 40°41' W 074°01'0 0.0
2017-Dec-29 15:53N 40°41' W 074°01'0 0.0
2017-Dec-29 15:26N 40°41' W 074°01'0 0.0
2017-Dec-29 14:56N 40°41' W 074°01'0 0.0
2017-Dec-29 14:25N 40°41' W 074°01'0 0.0
2017-Dec-29 13:59N 40°41' W 074°01'0 0.0
2017-Dec-29 13:28N 40°41' W 074°01'0 0.0
2017-Dec-29 12:56N 40°41' W 074°01'0 0.0
2017-Dec-29 12:25N 40°41' W 074°01'0 0.0
2017-Dec-29 11:53N 40°41' W 074°01'0 0.0
2017-Dec-29 11:30N 40°41' W 074°01'0 0.0
2017-Dec-29 10:56N 40°41' W 074°01'0 0.0
2017-Dec-29 10:23N 40°41' W 074°01'0 0.0
2017-Dec-29 10:00N 40°41' W 074°01'0 0.0
2017-Dec-29 09:29N 40°41' W 074°01'0 0.0
2017-Dec-29 08:59N 40°41' W 074°01'0 0.0
2017-Dec-29 08:25N 40°41' W 074°01'0 0.0
2017-Dec-29 07:58N 40°41' W 074°01'0 0.0
2017-Dec-29 07:30N 40°41' W 074°01'0 0.0
2017-Dec-29 06:56N 40°41' W 074°01'0 0.0
2017-Dec-29 06:28N 40°41' W 074°01'0 0.0
2017-Dec-29 05:58N 40°41' W 074°01'0 0.0
2017-Dec-29 05:29N 40°41' W 074°01'0 0.0
2017-Dec-29 05:00N 40°41' W 074°01'0 0.0
2017-Dec-29 04:30N 40°41' W 074°01'0 0.0
2017-Dec-29 04:00N 40°41' W 074°01'0 0.0
2017-Dec-29 03:26N 40°41' W 074°01'0 0.0
2017-Dec-29 02:59N 40°41' W 074°01'0 0.0
2017-Dec-29 02:29N 40°41' W 074°01'0 0.0
2017-Dec-29 02:00N 40°41' W 074°01'0 0.0
2017-Dec-29 01:29N 40°41' W 074°01'0 0.0
2017-Dec-29 00:59N 40°41' W 074°01'0 0.0
2017-Dec-29 00:24N 40°41' W 074°01'0 0.0
2017-Dec-28 23:58N 40°41' W 074°01'0 0.0
2017-Dec-28 23:28N 40°41' W 074°01'0 0.0
2017-Dec-28 22:56N 40°41' W 074°01'0 0.0
2017-Dec-28 22:24N 40°41' W 074°01'0 0.0
2017-Dec-28 21:58N 40°41' W 074°01'0 0.0
2017-Dec-28 21:28N 40°41' W 074°01'0 0.0
2017-Dec-28 20:54N 40°41' W 074°01'0 0.0
2017-Dec-28 20:28N 40°41' W 074°01'0 0.0
2017-Dec-28 19:57N 40°41' W 074°01'0 0.0
2017-Dec-28 19:26N 40°41' W 074°01'0 0.0
2017-Dec-28 19:00N 40°41' W 074°01'0 0.0
2017-Dec-28 18:30N 40°41' W 074°01'0 0.0
2017-Dec-28 17:58N 40°41' W 074°01'0 0.0
2017-Dec-28 17:29N 40°41' W 074°01'0 0.0
2017-Dec-28 17:00N 40°41' W 074°01'0 0.0
2017-Dec-28 16:24N 40°41' W 074°01'0 0.0
2017-Dec-28 15:59N 40°41' W 074°01'0 0.0
2017-Dec-28 15:29N 40°41' W 074°01'0 0.0
2017-Dec-28 14:55N 40°41' W 074°01'0 0.0
2017-Dec-28 14:28N 40°41' W 074°01'0 0.0
2017-Dec-28 13:53N 40°41' W 074°01'0 0.0
2017-Dec-28 13:28N 40°41' W 074°01'0 0.0
2017-Dec-28 12:59N 40°41' W 074°01'0 0.0
2017-Dec-28 12:23N 40°41' W 074°01'0 0.0
2017-Dec-28 12:00N 40°41' W 074°01'0 0.0
2017-Dec-28 11:29N 40°41' W 074°01'0 0.0
2017-Dec-28 10:56N 40°41' W 074°01'0 0.0
2017-Dec-28 10:25N 40°41' W 074°01'0 0.0
2017-Dec-28 10:00N 40°41' W 074°01'0 0.0
2017-Dec-28 09:26N 40°41' W 074°01'0 0.0
2017-Dec-28 08:57N 40°41' W 074°01'0 0.0
2017-Dec-28 08:28N 40°41' W 074°01'0 0.0
2017-Dec-28 07:53N 40°41' W 074°01'0 0.0
2017-Dec-28 07:29N 40°41' W 074°01'0 0.0
2017-Dec-28 06:58N 40°41' W 074°01'0 0.0
2017-Dec-28 06:28N 40°41' W 074°01'0 0.0
2017-Dec-28 05:59N 40°41' W 074°01'0 0.0
2017-Dec-28 05:27N 40°41' W 074°01'0 0.0
2017-Dec-28 04:57N 40°41' W 074°01'0 0.0
2017-Dec-28 04:28N 40°41' W 074°01'0 0.0
2017-Dec-28 03:58N 40°41' W 074°01'0 0.0
2017-Dec-28 03:28N 40°41' W 074°01'0 0.0
2017-Dec-28 02:54N 40°41' W 074°01'0 0.0
2017-Dec-28 02:30N 40°41' W 074°01'0 0.0
2017-Dec-28 01:59N 40°41' W 074°01'0 0.0
2017-Dec-28 01:26N 40°41' W 074°01'0 0.0
2017-Dec-28 00:59N 40°41' W 074°01'0 0.0
2017-Dec-28 00:24N 40°41' W 074°01'0 0.0
2017-Dec-27 23:58N 40°41' W 074°01'0 0.0
2017-Dec-27 23:29N 40°41' W 074°01'0 0.0
2017-Dec-27 22:56N 40°41' W 074°01'0 0.0
2017-Dec-27 22:30N 40°41' W 074°01'0 0.0
2017-Dec-27 22:00N 40°41' W 074°01'0 0.0
2017-Dec-27 21:28N 40°41' W 074°01'0 0.0
2017-Dec-27 20:56N 40°41' W 074°01'0 0.0
2017-Dec-27 20:24N 40°41' W 074°01'0 0.0
2017-Dec-27 20:00N 40°41' W 074°01'0 0.0
2017-Dec-27 19:26N 40°41' W 074°01'0 0.0
2017-Dec-27 18:57N 40°41' W 074°01'0 0.0
2017-Dec-27 18:23N 40°41' W 074°01'0 0.0
2017-Dec-27 18:00N 40°41' W 074°01'0 0.0
2017-Dec-27 17:29N 40°41' W 074°01'0 0.0
2017-Dec-27 16:58N 40°41' W 074°01'0 0.0
2017-Dec-27 16:30N 40°41' W 074°01'0 0.0
2017-Dec-27 15:58N 40°41' W 074°01'0 0.0
2017-Dec-27 15:28N 40°41' W 074°01'0 0.0
2017-Dec-27 14:57N 40°41' W 074°01'0 0.0
2017-Dec-27 14:28N 40°41' W 074°01'0 0.0
2017-Dec-27 13:59N 40°41' W 074°01'0 0.0
2017-Dec-27 13:29N 40°41' W 074°01'0 0.0
2017-Dec-27 12:55N 40°41' W 074°01'0 0.0
2017-Dec-27 12:28N 40°41' W 074°01'0 0.0
2017-Dec-27 11:59N 40°41' W 074°01'0 0.0
2017-Dec-27 11:27N 40°41' W 074°01'0 0.0
2017-Dec-27 10:57N 40°41' W 074°01'0 0.0
2017-Dec-27 10:30N 40°41' W 074°01'0 0.0
2017-Dec-27 10:00N 40°41' W 074°01'0 0.0
2017-Dec-27 09:28N 40°41' W 074°01'0 0.0
2017-Dec-27 08:55N 40°41' W 074°01'0 0.0
2017-Dec-27 08:28N 40°41' W 074°01'0 0.0
2017-Dec-27 07:59N 40°41' W 074°01'0 0.0
2017-Dec-27 07:28N 40°41' W 074°01'0 0.0
2017-Dec-27 06:57N 40°41' W 074°01'0 0.0
2017-Dec-27 06:30N 40°41' W 074°01'0 0.0
2017-Dec-27 05:58N 40°41' W 074°01'0 0.0
2017-Dec-27 05:28N 40°41' W 074°01'0 0.0
2017-Dec-27 04:54N 40°41' W 074°01'0 0.0
2017-Dec-27 04:29N 40°41' W 074°01'0 0.0
2017-Dec-27 04:00N 40°41' W 074°01'0 0.0
2017-Dec-27 03:29N 40°41' W 074°01'0 0.0
2017-Dec-27 02:58N 40°41' W 074°01'0 0.0
2017-Dec-27 02:23N 40°41' W 074°01'0 0.0
2017-Dec-27 01:58N 40°41' W 074°01'0 0.0
2017-Dec-27 01:29N 40°41' W 074°01'0 0.0
2017-Dec-27 01:00N 40°41' W 074°01'0 0.0
2017-Dec-27 00:25N 40°41' W 074°01'0 0.0
2017-Dec-26 23:58N 40°41' W 074°01'0 0.0
2017-Dec-26 23:29N 40°41' W 074°01'0 0.0
2017-Dec-26 22:55N 40°41' W 074°01'0 0.0
2017-Dec-26 22:30N 40°41' W 074°01'0 0.0
2017-Dec-26 22:00N 40°41' W 074°01'0 0.0
2017-Dec-26 21:29N 40°41' W 074°01'0 0.0
2017-Dec-26 20:57N 40°41' W 074°01'0 0.0
2017-Dec-26 20:27N 40°41' W 074°01'0 0.0
2017-Dec-26 19:58N 40°41' W 074°01'0 0.0
2017-Dec-26 19:28N 40°41' W 074°01'0 0.0
2017-Dec-26 19:00N 40°41' W 074°01'0 0.0
2017-Dec-26 18:30N 40°41' W 074°01'0 0.0
2017-Dec-26 17:59N 40°41' W 074°01'0 0.0
2017-Dec-26 17:29N 40°41' W 074°01'0 0.0
2017-Dec-26 16:58N 40°41' W 074°01'0 0.0
2017-Dec-26 16:28N 40°41' W 074°01'0 0.0
2017-Dec-26 16:00N 40°41' W 074°01'0 0.0
2017-Dec-26 15:28N 40°41' W 074°01'0 0.0
2017-Dec-26 14:59N 40°41' W 074°01'0 0.0
2017-Dec-26 14:30N 40°41' W 074°01'0 0.0
2017-Dec-26 13:58N 40°41' W 074°01'0 0.0
2017-Dec-26 13:28N 40°41' W 074°01'0 0.0
2017-Dec-26 12:58N 40°41' W 074°01'0 0.0
2017-Dec-26 12:30N 40°41' W 074°01'0 0.0
2017-Dec-26 11:59N 40°41' W 074°01'0 0.0
2017-Dec-26 11:28N 40°41' W 074°01'0 0.0
2017-Dec-26 10:57N 40°41' W 074°01'0 0.0
2017-Dec-26 10:25N 40°41' W 074°01'0 0.0
2017-Dec-26 09:58N 40°41' W 074°01'0 0.0
2017-Dec-26 09:27N 40°41' W 074°01'0 0.0
2017-Dec-26 08:56N 40°41' W 074°01'0 0.0
2017-Dec-26 08:29N 40°41' W 074°01'0 0.0
2017-Dec-26 07:59N 40°41' W 074°01'0 0.0
2017-Dec-26 07:29N 40°41' W 074°01'0 0.0
2017-Dec-26 06:57N 40°41' W 074°01'0 0.0
2017-Dec-26 06:25N 40°41' W 074°01'0 0.0
2017-Dec-26 05:58N 40°41' W 074°01'0 0.0
2017-Dec-26 05:28N 40°41' W 074°01'0 0.0
2017-Dec-26 04:55N 40°41' W 074°01'0 0.0
2017-Dec-26 04:29N 40°41' W 074°01'0 0.0
2017-Dec-26 03:57N 40°41' W 074°01'0 0.0
2017-Dec-26 03:27N 40°41' W 074°01'0 0.0
2017-Dec-26 02:59N 40°41' W 074°01'0 0.0
2017-Dec-26 02:24N 40°41' W 074°01'0 0.0
2017-Dec-26 02:00N 40°41' W 074°01'0 0.0
2017-Dec-26 01:30N 40°41' W 074°01'0 0.0
2017-Dec-26 00:58N 40°41' W 074°01'0 0.0
2017-Dec-26 00:30N 40°41' W 074°01'0 0.0
2017-Dec-26 00:00N 40°41' W 074°01'0 0.0
2017-Dec-25 23:27N 40°41' W 074°01'0 0.0
2017-Dec-25 22:57N 40°41' W 074°01'0 0.0
2017-Dec-25 22:28N 40°41' W 074°01'0 0.0
2017-Dec-25 22:00N 40°41' W 074°01'0 0.0
2017-Dec-25 21:27N 40°41' W 074°01'0 0.0
2017-Dec-25 20:58N 40°41' W 074°01'0 0.0
2017-Dec-25 20:23N 40°41' W 074°01'0 0.0
2017-Dec-25 19:53N 40°41' W 074°01'0 0.0
2017-Dec-25 19:26N 40°41' W 074°01'0 0.0
2017-Dec-25 18:56N 40°41' W 074°01'0 0.0
2017-Dec-25 18:29N 40°41' W 074°01'0 0.0
2017-Dec-25 17:53N 40°41' W 074°01'0 0.0
2017-Dec-25 17:29N 40°41' W 074°01'0 0.0
2017-Dec-25 16:58N 40°41' W 074°01'0 0.0
2017-Dec-25 16:23N 40°41' W 074°01'0 0.0
2017-Dec-25 15:53N 40°41' W 074°01'0 0.0
2017-Dec-25 15:26N 40°41' W 074°01'0 0.0
2017-Dec-25 14:58N 40°41' W 074°01'0 0.0
2017-Dec-25 14:30N 40°41' W 074°01'0 0.0
2017-Dec-25 13:59N 40°41' W 074°01'0 0.0
2017-Dec-25 13:29N 40°41' W 074°01'0 0.0
2017-Dec-25 12:57N 40°41' W 074°01'0 0.0
2017-Dec-25 12:28N 40°41' W 074°01'0 0.0
2017-Dec-25 11:58N 40°41' W 074°01'0 0.0
2017-Dec-25 11:28N 40°41' W 074°01'0 0.0
2017-Dec-25 10:57N 40°41' W 074°01'0 0.0
2017-Dec-25 10:29N 40°41' W 074°01'0 0.0
2017-Dec-25 09:58N 40°41' W 074°01'0 0.0
2017-Dec-25 09:28N 40°41' W 074°01'0 0.0
2017-Dec-25 09:00N 40°41' W 074°01'0 0.0
2017-Dec-25 08:28N 40°41' W 074°01'0 0.0
2017-Dec-25 07:58N 40°41' W 074°01'0 0.0
2017-Dec-25 07:29N 40°41' W 074°01'0 0.0
2017-Dec-25 06:58N 40°41' W 074°01'0 0.0
2017-Dec-25 06:28N 40°41' W 074°01'0 0.0
2017-Dec-25 05:58N 40°41' W 074°01'0 0.0
2017-Dec-25 05:28N 40°41' W 074°01'0 0.0
2017-Dec-25 05:00N 40°41' W 074°01'0 0.0
2017-Dec-25 04:28N 40°41' W 074°01'0 0.0
2017-Dec-25 03:59N 40°41' W 074°01'0 0.0
2017-Dec-25 03:28N 40°41' W 074°01'0 0.0
2017-Dec-25 02:58N 40°41' W 074°01'0 0.0
2017-Dec-25 02:30N 40°41' W 074°01'0 0.0
2017-Dec-25 02:00N 40°41' W 074°01'0 0.0
2017-Dec-25 01:29N 40°41' W 074°01'0 0.0
2017-Dec-25 01:00N 40°41' W 074°01'0 0.0
2017-Dec-25 00:24N 40°41' W 074°01'0 0.0
2017-Dec-25 00:00N 40°41' W 074°01'0 0.0
2017-Dec-24 23:26N 40°41' W 074°01'0 0.0
2017-Dec-24 22:55N 40°41' W 074°01'0 0.0
2017-Dec-24 22:25N 40°41' W 074°01'0 0.0
2017-Dec-24 21:59N 40°41' W 074°01'0 0.0
2017-Dec-24 21:26N 40°41' W 074°01'0 0.0
2017-Dec-24 20:55N 40°41' W 074°01'0 0.0
2017-Dec-24 20:28N 40°41' W 074°01'0 0.0
2017-Dec-24 20:00N 40°41' W 074°01'0 0.0
2017-Dec-24 19:30N 40°41' W 074°01'0 0.0
2017-Dec-24 19:00N 40°41' W 074°01'0 0.0
2017-Dec-24 18:23N 40°41' W 074°01'0 0.0
2017-Dec-24 17:58N 40°41' W 074°01'0 0.0
2017-Dec-24 17:26N 40°41' W 074°01'0 0.0
2017-Dec-24 16:56N 40°41' W 074°01'0 0.0
2017-Dec-24 16:27N 40°41' W 074°01'0 0.0
2017-Dec-24 16:00N 40°41' W 074°01'0 0.0
2017-Dec-24 15:29N 40°41' W 074°01'0 0.0
2017-Dec-24 15:00N 40°41' W 074°01'0 0.0
2017-Dec-24 14:28N 40°41' W 074°01'0 0.0
2017-Dec-24 13:59N 40°41' W 074°01'0 0.0
2017-Dec-24 13:27N 40°41' W 074°01'0 0.0
2017-Dec-24 12:54N 40°41' W 074°01'0 0.0
2017-Dec-24 12:28N 40°41' W 074°01'0 0.0
2017-Dec-24 11:58N 40°41' W 074°01'0 0.0
2017-Dec-24 11:28N 40°41' W 074°01'0 0.0
2017-Dec-24 11:00N 40°41' W 074°01'0 0.0
2017-Dec-24 10:30N 40°41' W 074°01'0 0.0
2017-Dec-24 09:53N 40°41' W 074°01'0 0.0
2017-Dec-24 09:30N 40°41' W 074°01'0 0.0
2017-Dec-24 08:43N 40°41' W 074°01'0 0.0
2017-Dec-24 08:27N 40°41' W 074°01'0 0.0
2017-Dec-24 07:58N 40°41' W 074°01'0 0.0
2017-Dec-24 07:29N 40°41' W 074°01'0 0.0
2017-Dec-24 06:56N 40°41' W 074°01'0 0.0
2017-Dec-24 06:30N 40°41' W 074°01'0 0.0
2017-Dec-24 05:59N 40°41' W 074°01'0 0.0
2017-Dec-24 05:30N 40°41' W 074°01'0 0.0
2017-Dec-24 04:59N 40°41' W 074°01'0 0.0
2017-Dec-24 04:28N 40°41' W 074°01'0 0.0
2017-Dec-24 03:58N 40°41' W 074°01'0 0.0
2017-Dec-24 03:28N 40°41' W 074°01'0 0.0
2017-Dec-24 03:00N 40°41' W 074°01'0 0.0
2017-Dec-24 02:30N 40°41' W 074°01'0 0.0
2017-Dec-24 01:59N 40°41' W 074°01'0 0.0
2017-Dec-24 01:29N 40°41' W 074°01'0 0.0
2017-Dec-24 00:59N 40°41' W 074°01'0 0.0
2017-Dec-24 00:23N 40°41' W 074°01'0 0.0
2017-Dec-24 00:00N 40°41' W 074°01'0 0.0
2017-Dec-23 23:30N 40°41' W 074°01'0 0.0
2017-Dec-23 22:57N 40°41' W 074°01'0 0.0
2017-Dec-23 22:24N 40°41' W 074°01'0 0.0
2017-Dec-23 21:58N 40°41' W 074°01'0 0.0
2017-Dec-23 21:28N 40°41' W 074°01'0 0.0
2017-Dec-23 20:56N 40°41' W 074°01'0 0.0
2017-Dec-23 20:24N 40°41' W 074°01'0 0.0
2017-Dec-23 19:59N 40°41' W 074°01'0 0.0
2017-Dec-23 19:28N 40°41' W 074°01'0 0.0
2017-Dec-23 18:55N 40°41' W 074°01'0 0.0
2017-Dec-23 18:25N 40°41' W 074°01'0 0.0
2017-Dec-23 17:58N 40°41' W 074°01'0 0.0
2017-Dec-23 17:26N 40°41' W 074°01'0 0.0
2017-Dec-23 16:56N 40°41' W 074°01'0 0.0
2017-Dec-23 16:25N 40°41' W 074°01'0 0.0
2017-Dec-23 15:58N 40°41' W 074°01'0 0.0
2017-Dec-23 15:29N 40°41' W 074°01'0 0.0
2017-Dec-23 14:55N 40°41' W 074°01'0 0.0
2017-Dec-23 14:24N 40°41' W 074°01'0 0.0
2017-Dec-23 13:59N 40°41' W 074°01'0 0.0
2017-Dec-23 13:29N 40°41' W 074°01'0 0.0
2017-Dec-23 12:58N 40°41' W 074°01'0 0.0
2017-Dec-23 12:28N 40°41' W 074°01'0 0.0
2017-Dec-23 11:56N 40°41' W 074°01'0 0.0
2017-Dec-23 11:28N 40°41' W 074°01'0 0.0
2017-Dec-23 10:55N 40°41' W 074°01'0 0.0
2017-Dec-23 10:23N 40°41' W 074°01'0 0.0
2017-Dec-23 09:59N 40°41' W 074°01'0 0.0
2017-Dec-23 09:29N 40°41' W 074°01'0 0.0
2017-Dec-23 08:59N 40°41' W 074°01'0 0.0
2017-Dec-23 08:30N 40°41' W 074°01'0 0.0
2017-Dec-23 07:58N 40°41' W 074°01'0 0.0
2017-Dec-23 07:29N 40°41' W 074°01'0 0.0
2017-Dec-23 06:58N 40°41' W 074°01'0 0.0
2017-Dec-23 06:30N 40°41' W 074°01'0 0.0
2017-Dec-23 05:56N 40°41' W 074°01'0 0.0
2017-Dec-23 05:29N 40°41' W 074°01'0 0.0
2017-Dec-23 05:00N 40°41' W 074°01'0 0.0
2017-Dec-23 04:24N 40°41' W 074°01'0 0.0
2017-Dec-23 03:58N 40°41' W 074°01'0 0.0
2017-Dec-23 03:27N 40°41' W 074°01'0 0.0
2017-Dec-23 02:54N 40°41' W 074°01'0 0.0
2017-Dec-23 02:24N 40°41' W 074°01'0 0.0
2017-Dec-23 01:58N 40°41' W 074°01'0 0.0
2017-Dec-23 01:29N 40°41' W 074°01'0 0.0
2017-Dec-23 00:58N 40°41' W 074°01'0 0.0
2017-Dec-23 00:30N 40°41' W 074°01'0 0.0
2017-Dec-22 23:59N 40°41' W 074°01'0 0.0
2017-Dec-22 23:29N 40°41' W 074°01'0 0.0
2017-Dec-22 22:57N 40°41' W 074°01'0 0.0
2017-Dec-22 22:30N 40°41' W 074°01'0 0.0
2017-Dec-22 22:00N 40°41' W 074°01'0 0.0
2017-Dec-22 21:26N 40°41' W 074°01'0 0.0
2017-Dec-22 20:25N 40°41' W 074°01'0 0.0
2017-Dec-22 19:59N 40°41' W 074°01'0 0.0
2017-Dec-22 19:29N 40°41' W 074°01'0 0.0
2017-Dec-22 19:00N 40°41' W 074°01'0 0.0
2017-Dec-22 18:24N 40°41' W 074°01'0 0.0
2017-Dec-22 17:53N 40°41' W 074°01'0 0.0
2017-Dec-22 17:29N 40°41' W 074°01'0 0.0
2017-Dec-22 16:57N 40°41' W 074°01'0 0.0
2017-Dec-22 16:27N 40°41' W 074°01'0 0.0
2017-Dec-22 15:59N 40°41' W 074°01'0 0.0
2017-Dec-22 15:26N 40°41' W 074°01'0 0.0
2017-Dec-22 15:00N 40°41' W 074°01'0 0.0
2017-Dec-22 14:23N 40°41' W 074°01'0 0.0
2017-Dec-22 14:00N 40°41' W 074°01'0 0.0
2017-Dec-22 13:26N 40°41' W 074°01'0 0.0
2017-Dec-22 12:59N 40°41' W 074°01'0 0.0
2017-Dec-22 12:24N 40°41' W 074°01'0 0.0
2017-Dec-22 11:53N 40°41' W 074°01'0 0.0
2017-Dec-22 11:29N 40°41' W 074°01'0 0.0
2017-Dec-22 10:52N 40°41' W 074°01'0 0.0
2017-Dec-22 10:30N 40°41' W 074°01'0 0.0
2017-Dec-22 09:58N 40°41' W 074°01'0 0.0
2017-Dec-22 09:29N 40°41' W 074°01'0 0.0
2017-Dec-22 09:00N 40°41' W 074°01'0 0.0
2017-Dec-22 08:25N 40°41' W 074°01'  
Track history (hours):
 
Tides and Currents Weather Stations Pressure Air Temp Water Temp Dewpoint Dewpoint Depression Visibility Wind Speed Wind Dir Waves Ship Positions

Liberty Belle

Owner: Pleasure Boat Cruise Corp., N. Ft. myers, FL. More information available from US FCC via Universal Licensing System and Coast Guard Vessel Documentation Center.

Last reported at 2018-Jan-01 08:01 UTC. Time now 2018-Jan-19 01:16 UTC.
Position N 40°41' W 074°01'.
Warning: this ship's position is 17 days out of date.

; draft 4.2 m.

Type: Passenger vessel. MMSI: 367589750.

Date/timePositionNaut miles runAvg speedWind from/ knotsBaromVisibWave heightAir tempDewpointWater temp
2018-Jan-01 08:01N 40°41' W 074°01'0 0.0
2018-Jan-01 08:01N 40°41' W 074°01'1 1.8
2018-Jan-01 07:31N 40°42' W 074°00'1 2.2
2018-Jan-01 07:00N 40°43' W 073°59'0 0.4
2018-Jan-01 06:01N 40°42' W 073°60'2 4.0
2018-Jan-01 05:31N 40°41' W 074°02'0 0.4
2018-Jan-01 05:00N 40°42' W 074°02'2 2.4
2018-Jan-01 04:01N 40°42' W 073°59'0 0.2
2018-Jan-01 03:30N 40°43' W 073°59'0 0.0
2018-Jan-01 03:00N 40°43' W 073°59'0 0.0
2018-Jan-01 02:30N 40°43' W 073°59'0 0.0
2018-Jan-01 02:00N 40°43' W 073°59'0 0.0
2018-Jan-01 01:30N 40°43' W 073°59'2 2.0
2018-Jan-01 00:30N 40°41' W 074°01'0 0.0
2017-Dec-31 20:54N 40°41' W 074°01'0 0.0
2017-Dec-31 20:24N 40°41' W 074°01'0 0.0
2017-Dec-31 20:00N 40°41' W 074°01'0 0.0
2017-Dec-31 19:29N 40°41' W 074°01'0 0.0
2017-Dec-31 19:00N 40°41' W 074°01'0 0.0
2017-Dec-31 18:30N 40°41' W 074°01'0 0.0
2017-Dec-31 17:58N 40°41' W 074°01'0 0.0
2017-Dec-31 17:29N 40°41' W 074°01'0 0.0
2017-Dec-31 16:55N 40°41' W 074°01'0 0.0
2017-Dec-31 16:30N 40°41' W 074°01'0 0.0
2017-Dec-31 15:58N 40°41' W 074°01'0 0.0
2017-Dec-31 15:29N 40°41' W 074°01'0 0.0
2017-Dec-31 14:55N 40°41' W 074°01'0 0.0
2017-Dec-31 14:30N 40°41' W 074°01'0 0.0
2017-Dec-31 13:58N 40°41' W 074°01'0 0.0
2017-Dec-31 13:29N 40°41' W 074°01'0 0.0
2017-Dec-31 12:54N 40°41' W 074°01'0 0.0
2017-Dec-31 12:28N 40°41' W 074°01'0 0.0
2017-Dec-31 11:58N 40°41' W 074°01'0 0.0
2017-Dec-31 11:26N 40°41' W 074°01'0 0.0
2017-Dec-31 10:57N 40°41' W 074°01'0 0.0
2017-Dec-31 10:24N 40°41' W 074°01'0 0.0
2017-Dec-31 09:57N 40°41' W 074°01'0 0.0
2017-Dec-31 09:29N 40°41' W 074°01'0 0.0
2017-Dec-31 08:55N 40°41' W 074°01'0 0.0
2017-Dec-31 08:28N 40°41' W 074°01'0 0.0
2017-Dec-31 07:59N 40°41' W 074°01'0 0.0
2017-Dec-31 07:29N 40°41' W 074°01'0 0.0
2017-Dec-31 07:00N 40°41' W 074°01'0 0.0
2017-Dec-31 06:23N 40°41' W 074°01'0 0.0
2017-Dec-31 05:59N 40°41' W 074°01'0 0.0
2017-Dec-31 05:26N 40°41' W 074°01'0 0.0
2017-Dec-31 04:55N 40°41' W 074°01'0 0.0
2017-Dec-31 04:28N 40°41' W 074°01'0 0.0
2017-Dec-31 03:59N 40°41' W 074°01'0 0.0
2017-Dec-31 03:29N 40°41' W 074°01'0 0.0
2017-Dec-31 02:57N 40°41' W 074°01'0 0.0
2017-Dec-31 02:29N 40°41' W 074°01'0 0.0
2017-Dec-31 01:58N 40°41' W 074°01'0 0.0
2017-Dec-31 01:29N 40°41' W 074°01'0 0.0
2017-Dec-31 00:56N 40°41' W 074°01'0 0.0
2017-Dec-31 00:25N 40°41' W 074°01'0 0.0
2017-Dec-31 00:00N 40°41' W 074°01'0 0.0
2017-Dec-30 23:29N 40°41' W 074°01'0 0.0
2017-Dec-30 22:59N 40°41' W 074°01'0 0.0
2017-Dec-30 22:23N 40°41' W 074°01'0 0.0
2017-Dec-30 21:59N 40°41' W 074°01'0 0.0
2017-Dec-30 21:27N 40°41' W 074°01'0 0.0
2017-Dec-30 20:57N 40°41' W 074°01'0 0.0
2017-Dec-30 20:23N 40°41' W 074°01'0 0.0
2017-Dec-30 19:59N 40°41' W 074°01'0 0.0
2017-Dec-30 19:26N 40°41' W 074°01'0 0.0
2017-Dec-30 18:43N 40°41' W 074°01'0 0.0
2017-Dec-30 18:24N 40°41' W 074°01'0 0.0
2017-Dec-30 18:00N 40°41' W 074°01'0 0.0
2017-Dec-30 17:19N 40°41' W 074°01'0 0.0
2017-Dec-30 16:57N 40°41' W 074°01'0 0.0
2017-Dec-30 16:23N 40°41' W 074°01'0 0.0
2017-Dec-30 15:59N 40°41' W 074°01'0 0.0
2017-Dec-30 15:29N 40°41' W 074°01'0 0.0
2017-Dec-30 14:57N 40°41' W 074°01'0 0.0
2017-Dec-30 14:25N 40°41' W 074°01'0 0.0
2017-Dec-30 13:59N 40°41' W 074°01'0 0.0
2017-Dec-30 13:27N 40°41' W 074°01'0 0.0
2017-Dec-30 12:59N 40°41' W 074°01'0 0.0
2017-Dec-30 12:28N 40°41' W 074°01'0 0.0
2017-Dec-30 12:00N 40°41' W 074°01'0 0.0
2017-Dec-30 11:27N 40°41' W 074°01'0 0.0
2017-Dec-30 10:55N 40°41' W 074°01'0 0.0
2017-Dec-30 10:23N 40°41' W 074°01'0 0.0
2017-Dec-30 09:53N 40°41' W 074°01'0 0.0
2017-Dec-30 09:27N 40°41' W 074°01'0 0.0
2017-Dec-30 08:55N 40°41' W 074°01'0 0.0
2017-Dec-30 08:28N 40°41' W 074°01'0 0.0
2017-Dec-30 07:55N 40°41' W 074°01'0 0.0
2017-Dec-30 07:26N 40°41' W 074°01'0 0.0
2017-Dec-30 06:58N 40°41' W 074°01'0 0.0
2017-Dec-30 06:25N 40°41' W 074°01'0 0.0
2017-Dec-30 05:51N 40°41' W 074°01'0 0.0
2017-Dec-30 05:27N 40°41' W 074°01'0 0.0
2017-Dec-30 04:57N 40°41' W 074°01'0 0.0
2017-Dec-30 04:30N 40°41' W 074°01'0 0.0
2017-Dec-30 03:59N 40°41' W 074°01'0 0.0
2017-Dec-30 03:28N 40°41' W 074°01'0 0.0
2017-Dec-30 02:58N 40°41' W 074°01'0 0.0
2017-Dec-30 02:23N 40°41' W 074°01'0 0.0
2017-Dec-30 02:00N 40°41' W 074°01'0 0.0
2017-Dec-30 01:26N 40°41' W 074°01'0 0.0
2017-Dec-30 00:55N 40°41' W 074°01'0 0.0
2017-Dec-30 00:23N 40°41' W 074°01'0 0.0
2017-Dec-29 23:58N 40°41' W 074°01'0 0.0
2017-Dec-29 23:30N 40°41' W 074°01'0 0.0
2017-Dec-29 23:00N 40°41' W 074°01'0 0.0
2017-Dec-29 22:25N 40°41' W 074°01'0 0.0
2017-Dec-29 21:58N 40°41' W 074°01'0 0.0
2017-Dec-29 21:27N 40°41' W 074°01'0 0.0
2017-Dec-29 20:56N 40°41' W 074°01'0 0.0
2017-Dec-29 20:30N 40°41' W 074°01'0 0.0
2017-Dec-29 19:55N 40°41' W 074°01'0 0.0
2017-Dec-29 19:27N 40°41' W 074°01'0 0.0
2017-Dec-29 18:57N 40°41' W 074°01'0 0.0
2017-Dec-29 18:27N 40°41' W 074°01'0 0.0
2017-Dec-29 17:58N 40°41' W 074°01'0 0.0
2017-Dec-29 17:28N 40°41' W 074°01'0 0.0
2017-Dec-29 16:57N 40°41' W 074°01'0 0.0
2017-Dec-29 16:25N 40°41' W 074°01'0 0.0
2017-Dec-29 15:53N 40°41' W 074°01'0 0.0
2017-Dec-29 15:26N 40°41' W 074°01'0 0.0
2017-Dec-29 14:56N 40°41' W 074°01'0 0.0
2017-Dec-29 14:25N 40°41' W 074°01'0 0.0
2017-Dec-29 13:59N 40°41' W 074°01'0 0.0
2017-Dec-29 13:28N 40°41' W 074°01'0 0.0
2017-Dec-29 12:56N 40°41' W 074°01'0 0.0
2017-Dec-29 12:25N 40°41' W 074°01'0 0.0
2017-Dec-29 11:53N 40°41' W 074°01'0 0.0
2017-Dec-29 11:30N 40°41' W 074°01'0 0.0
2017-Dec-29 10:56N 40°41' W 074°01'0 0.0
2017-Dec-29 10:23N 40°41' W 074°01'0 0.0
2017-Dec-29 10:00N 40°41' W 074°01'0 0.0
2017-Dec-29 09:29N 40°41' W 074°01'0 0.0
2017-Dec-29 08:59N 40°41' W 074°01'0 0.0
2017-Dec-29 08:25N 40°41' W 074°01'0 0.0
2017-Dec-29 07:58N 40°41' W 074°01'0 0.0
2017-Dec-29 07:30N 40°41' W 074°01'0 0.0
2017-Dec-29 06:56N 40°41' W 074°01'0 0.0
2017-Dec-29 06:28N 40°41' W 074°01'0 0.0
2017-Dec-29 05:58N 40°41' W 074°01'0 0.0
2017-Dec-29 05:29N 40°41' W 074°01'0 0.0
2017-Dec-29 05:00N 40°41' W 074°01'0 0.0
2017-Dec-29 04:30N 40°41' W 074°01'0 0.0
2017-Dec-29 04:00N 40°41' W 074°01'0 0.0
2017-Dec-29 03:26N 40°41' W 074°01'0 0.0
2017-Dec-29 02:59N 40°41' W 074°01'0 0.0
2017-Dec-29 02:29N 40°41' W 074°01'0 0.0
2017-Dec-29 02:00N 40°41' W 074°01'0 0.0
2017-Dec-29 01:29N 40°41' W 074°01'0 0.0
2017-Dec-29 00:59N 40°41' W 074°01'0 0.0
2017-Dec-29 00:24N 40°41' W 074°01'0 0.0
2017-Dec-28 23:58N 40°41' W 074°01'0 0.0
2017-Dec-28 23:28N 40°41' W 074°01'0 0.0
2017-Dec-28 22:56N 40°41' W 074°01'0 0.0
2017-Dec-28 22:24N 40°41' W 074°01'0 0.0
2017-Dec-28 21:58N 40°41' W 074°01'0 0.0
2017-Dec-28 21:28N 40°41' W 074°01'0 0.0
2017-Dec-28 20:54N 40°41' W 074°01'0 0.0
2017-Dec-28 20:28N 40°41' W 074°01'0 0.0
2017-Dec-28 19:57N 40°41' W 074°01'0 0.0
2017-Dec-28 19:26N 40°41' W 074°01'0 0.0
2017-Dec-28 19:00N 40°41' W 074°01'0 0.0
2017-Dec-28 18:30N 40°41' W 074°01'0 0.0
2017-Dec-28 17:58N 40°41' W 074°01'0 0.0
2017-Dec-28 17:29N 40°41' W 074°01'0 0.0
2017-Dec-28 17:00N 40°41' W 074°01'0 0.0
2017-Dec-28 16:24N 40°41' W 074°01'0 0.0
2017-Dec-28 15:59N 40°41' W 074°01'0 0.0
2017-Dec-28 15:29N 40°41' W 074°01'0 0.0
2017-Dec-28 14:55N 40°41' W 074°01'0 0.0
2017-Dec-28 14:28N 40°41' W 074°01'0 0.0
2017-Dec-28 13:53N 40°41' W 074°01'0 0.0
2017-Dec-28 13:28N 40°41' W 074°01'0 0.0
2017-Dec-28 12:59N 40°41' W 074°01'0 0.0
2017-Dec-28 12:23N 40°41' W 074°01'0 0.0
2017-Dec-28 12:00N 40°41' W 074°01'0 0.0
2017-Dec-28 11:29N 40°41' W 074°01'0 0.0
2017-Dec-28 10:56N 40°41' W 074°01'0 0.0
2017-Dec-28 10:25N 40°41' W 074°01'0 0.0
2017-Dec-28 10:00N 40°41' W 074°01'0 0.0
2017-Dec-28 09:26N 40°41' W 074°01'0 0.0
2017-Dec-28 08:57N 40°41' W 074°01'0 0.0
2017-Dec-28 08:28N 40°41' W 074°01'0 0.0
2017-Dec-28 07:53N 40°41' W 074°01'0 0.0
2017-Dec-28 07:29N 40°41' W 074°01'0 0.0
2017-Dec-28 06:58N 40°41' W 074°01'0 0.0
2017-Dec-28 06:28N 40°41' W 074°01'0 0.0
2017-Dec-28 05:59N 40°41' W 074°01'0 0.0
2017-Dec-28 05:27N 40°41' W 074°01'0 0.0
2017-Dec-28 04:57N 40°41' W 074°01'0 0.0
2017-Dec-28 04:28N 40°41' W 074°01'0 0.0
2017-Dec-28 03:58N 40°41' W 074°01'0 0.0
2017-Dec-28 03:28N 40°41' W 074°01'0 0.0
2017-Dec-28 02:54N 40°41' W 074°01'0 0.0
2017-Dec-28 02:30N 40°41' W 074°01'0 0.0
2017-Dec-28 01:59N 40°41' W 074°01'0 0.0
2017-Dec-28 01:26N 40°41' W 074°01'0 0.0
2017-Dec-28 00:59N 40°41' W 074°01'0 0.0
2017-Dec-28 00:24N 40°41' W 074°01'0 0.0
2017-Dec-27 23:58N 40°41' W 074°01'0 0.0
2017-Dec-27 23:29N 40°41' W 074°01'0 0.0
2017-Dec-27 22:56N 40°41' W 074°01'0 0.0
2017-Dec-27 22:30N 40°41' W 074°01'0 0.0
2017-Dec-27 22:00N 40°41' W 074°01'0 0.0
2017-Dec-27 21:28N 40°41' W 074°01'0 0.0
2017-Dec-27 20:56N 40°41' W 074°01'0 0.0
2017-Dec-27 20:24N 40°41' W 074°01'0 0.0
2017-Dec-27 20:00N 40°41' W 074°01'0 0.0
2017-Dec-27 19:26N 40°41' W 074°01'0 0.0
2017-Dec-27 18:57N 40°41' W 074°01'0 0.0
2017-Dec-27 18:23N 40°41' W 074°01'0 0.0
2017-Dec-27 18:00N 40°41' W 074°01'0 0.0
2017-Dec-27 17:29N 40°41' W 074°01'0 0.0
2017-Dec-27 16:58N 40°41' W 074°01'0 0.0
2017-Dec-27 16:30N 40°41' W 074°01'0 0.0
2017-Dec-27 15:58N 40°41' W 074°01'0 0.0
2017-Dec-27 15:28N 40°41' W 074°01'0 0.0
2017-Dec-27 14:57N 40°41' W 074°01'0 0.0
2017-Dec-27 14:28N 40°41' W 074°01'0 0.0
2017-Dec-27 13:59N 40°41' W 074°01'0 0.0
2017-Dec-27 13:29N 40°41' W 074°01'0 0.0
2017-Dec-27 12:55N 40°41' W 074°01'0 0.0
2017-Dec-27 12:28N 40°41' W 074°01'0 0.0
2017-Dec-27 11:59N 40°41' W 074°01'0 0.0
2017-Dec-27 11:27N 40°41' W 074°01'0 0.0
2017-Dec-27 10:57N 40°41' W 074°01'0 0.0
2017-Dec-27 10:30N 40°41' W 074°01'0 0.0
2017-Dec-27 10:00N 40°41' W 074°01'0 0.0
2017-Dec-27 09:28N 40°41' W 074°01'0 0.0
2017-Dec-27 08:55N 40°41' W 074°01'0 0.0
2017-Dec-27 08:28N 40°41' W 074°01'0 0.0
2017-Dec-27 07:59N 40°41' W 074°01'0 0.0
2017-Dec-27 07:28N 40°41' W 074°01'0 0.0
2017-Dec-27 06:57N 40°41' W 074°01'0 0.0
2017-Dec-27 06:30N 40°41' W 074°01'0 0.0
2017-Dec-27 05:58N 40°41' W 074°01'0 0.0
2017-Dec-27 05:28N 40°41' W 074°01'0 0.0
2017-Dec-27 04:54N 40°41' W 074°01'0 0.0
2017-Dec-27 04:29N 40°41' W 074°01'0 0.0
2017-Dec-27 04:00N 40°41' W 074°01'0 0.0
2017-Dec-27 03:29N 40°41' W 074°01'0 0.0
2017-Dec-27 02:58N 40°41' W 074°01'0 0.0
2017-Dec-27 02:23N 40°41' W 074°01'0 0.0
2017-Dec-27 01:58N 40°41' W 074°01'0 0.0
2017-Dec-27 01:29N 40°41' W 074°01'0 0.0
2017-Dec-27 01:00N 40°41' W 074°01'0 0.0
2017-Dec-27 00:25N 40°41' W 074°01'0 0.0
2017-Dec-26 23:58N 40°41' W 074°01'0 0.0
2017-Dec-26 23:29N 40°41' W 074°01'0 0.0
2017-Dec-26 22:55N 40°41' W 074°01'0 0.0
2017-Dec-26 22:30N 40°41' W 074°01'0 0.0
2017-Dec-26 22:00N 40°41' W 074°01'0 0.0
2017-Dec-26 21:29N 40°41' W 074°01'0 0.0
2017-Dec-26 20:57N 40°41' W 074°01'0 0.0
2017-Dec-26 20:27N 40°41' W 074°01'0 0.0
2017-Dec-26 19:58N 40°41' W 074°01'0 0.0
2017-Dec-26 19:28N 40°41' W 074°01'0 0.0
2017-Dec-26 19:00N 40°41' W 074°01'0 0.0
2017-Dec-26 18:30N 40°41' W 074°01'0 0.0
2017-Dec-26 17:59N 40°41' W 074°01'0 0.0
2017-Dec-26 17:29N 40°41' W 074°01'0 0.0
2017-Dec-26 16:58N 40°41' W 074°01'0 0.0
2017-Dec-26 16:28N 40°41' W 074°01'0 0.0
2017-Dec-26 16:00N 40°41' W 074°01'0 0.0
2017-Dec-26 15:28N 40°41' W 074°01'0 0.0
2017-Dec-26 14:59N 40°41' W 074°01'0 0.0
2017-Dec-26 14:30N 40°41' W 074°01'0 0.0
2017-Dec-26 13:58N 40°41' W 074°01'0 0.0
2017-Dec-26 13:28N 40°41' W 074°01'0 0.0
2017-Dec-26 12:58N 40°41' W 074°01'0 0.0
2017-Dec-26 12:30N 40°41' W 074°01'0 0.0
2017-Dec-26 11:59N 40°41' W 074°01'0 0.0
2017-Dec-26 11:28N 40°41' W 074°01'0 0.0
2017-Dec-26 10:57N 40°41' W 074°01'0 0.0
2017-Dec-26 10:25N 40°41' W 074°01'0 0.0
2017-Dec-26 09:58N 40°41' W 074°01'0 0.0
2017-Dec-26 09:27N 40°41' W 074°01'0 0.0
2017-Dec-26 08:56N 40°41' W 074°01'0 0.0
2017-Dec-26 08:29N 40°41' W 074°01'0 0.0
2017-Dec-26 07:59N 40°41' W 074°01'0 0.0
2017-Dec-26 07:29N 40°41' W 074°01'0 0.0
2017-Dec-26 06:57N 40°41' W 074°01'0 0.0
2017-Dec-26 06:25N 40°41' W 074°01'0 0.0
2017-Dec-26 05:58N 40°41' W 074°01'0 0.0
2017-Dec-26 05:28N 40°41' W 074°01'0 0.0
2017-Dec-26 04:55N 40°41' W 074°01'0 0.0
2017-Dec-26 04:29N 40°41' W 074°01'0 0.0
2017-Dec-26 03:57N 40°41' W 074°01'0 0.0
2017-Dec-26 03:27N 40°41' W 074°01'0 0.0
2017-Dec-26 02:59N 40°41' W 074°01'0 0.0
2017-Dec-26 02:24N 40°41' W 074°01'0 0.0
2017-Dec-26 02:00N 40°41' W 074°01'0 0.0
2017-Dec-26 01:30N 40°41' W 074°01'0 0.0
2017-Dec-26 00:58N 40°41' W 074°01'0 0.0
2017-Dec-26 00:30N 40°41' W 074°01'0 0.0
2017-Dec-26 00:00N 40°41' W 074°01'0 0.0
2017-Dec-25 23:27N 40°41' W 074°01'0 0.0
2017-Dec-25 22:57N 40°41' W 074°01'0 0.0
2017-Dec-25 22:28N 40°41' W 074°01'0 0.0
2017-Dec-25 22:00N 40°41' W 074°01'0 0.0
2017-Dec-25 21:27N 40°41' W 074°01'0 0.0
2017-Dec-25 20:58N 40°41' W 074°01'0 0.0
2017-Dec-25 20:23N 40°41' W 074°01'0 0.0
2017-Dec-25 19:53N 40°41' W 074°01'0 0.0
2017-Dec-25 19:26N 40°41' W 074°01'0 0.0
2017-Dec-25 18:56N 40°41' W 074°01'0 0.0
2017-Dec-25 18:29N 40°41' W 074°01'0 0.0
2017-Dec-25 17:53N 40°41' W 074°01'0 0.0
2017-Dec-25 17:29N 40°41' W 074°01'0 0.0
2017-Dec-25 16:58N 40°41' W 074°01'0 0.0
2017-Dec-25 16:23N 40°41' W 074°01'0 0.0
2017-Dec-25 15:53N 40°41' W 074°01'0 0.0
2017-Dec-25 15:26N 40°41' W 074°01'0 0.0
2017-Dec-25 14:58N 40°41' W 074°01'0 0.0
2017-Dec-25 14:30N 40°41' W 074°01'0 0.0
2017-Dec-25 13:59N 40°41' W 074°01'0 0.0
2017-Dec-25 13:29N 40°41' W 074°01'0 0.0
2017-Dec-25 12:57N 40°41' W 074°01'0 0.0
2017-Dec-25 12:28N 40°41' W 074°01'0 0.0
2017-Dec-25 11:58N 40°41' W 074°01'0 0.0
2017-Dec-25 11:28N 40°41' W 074°01'0 0.0
2017-Dec-25 10:57N 40°41' W 074°01'0 0.0
2017-Dec-25 10:29N 40°41' W 074°01'0 0.0
2017-Dec-25 09:58N 40°41' W 074°01'0 0.0
2017-Dec-25 09:28N 40°41' W 074°01'0 0.0
2017-Dec-25 09:00N 40°41' W 074°01'0 0.0
2017-Dec-25 08:28N 40°41' W 074°01'0 0.0
2017-Dec-25 07:58N 40°41' W 074°01'0 0.0
2017-Dec-25 07:29N 40°41' W 074°01'0 0.0
2017-Dec-25 06:58N 40°41' W 074°01'0 0.0
2017-Dec-25 06:28N 40°41' W 074°01'0 0.0
2017-Dec-25 05:58N 40°41' W 074°01'0 0.0
2017-Dec-25 05:28N 40°41' W 074°01'0 0.0
2017-Dec-25 05:00N 40°41' W 074°01'0 0.0
2017-Dec-25 04:28N 40°41' W 074°01'0 0.0
2017-Dec-25 03:59N 40°41' W 074°01'0 0.0
2017-Dec-25 03:28N 40°41' W 074°01'0 0.0
2017-Dec-25 02:58N 40°41' W 074°01'0 0.0
2017-Dec-25 02:30N 40°41' W 074°01'0 0.0
2017-Dec-25 02:00N 40°41' W 074°01'0 0.0
2017-Dec-25 01:29N 40°41' W 074°01'0 0.0
2017-Dec-25 01:00N 40°41' W 074°01'0 0.0
2017-Dec-25 00:24N 40°41' W 074°01'0 0.0
2017-Dec-25 00:00N 40°41' W 074°01'0 0.0
2017-Dec-24 23:26N 40°41' W 074°01'0 0.0
2017-Dec-24 22:55N 40°41' W 074°01'0 0.0
2017-Dec-24 22:25N 40°41' W 074°01'0 0.0
2017-Dec-24 21:59N 40°41' W 074°01'0 0.0
2017-Dec-24 21:26N 40°41' W 074°01'0 0.0
2017-Dec-24 20:55N 40°41' W 074°01'0 0.0
2017-Dec-24 20:28N 40°41' W 074°01'0 0.0
2017-Dec-24 20:00N 40°41' W 074°01'0 0.0
2017-Dec-24 19:30N 40°41' W 074°01'0 0.0
2017-Dec-24 19:00N 40°41' W 074°01'0 0.0
2017-Dec-24 18:23N 40°41' W 074°01'0 0.0
2017-Dec-24 17:58N 40°41' W 074°01'0 0.0
2017-Dec-24 17:26N 40°41' W 074°01'0 0.0
2017-Dec-24 16:56N 40°41' W 074°01'0 0.0
2017-Dec-24 16:27N 40°41' W 074°01'0 0.0
2017-Dec-24 16:00N 40°41' W 074°01'0 0.0
2017-Dec-24 15:29N 40°41' W 074°01'0 0.0
2017-Dec-24 15:00N 40°41' W 074°01'0 0.0
2017-Dec-24 14:28N 40°41' W 074°01'0 0.0
2017-Dec-24 13:59N 40°41' W 074°01'0 0.0
2017-Dec-24 13:27N 40°41' W 074°01'0 0.0
2017-Dec-24 12:54N 40°41' W 074°01'0 0.0
2017-Dec-24 12:28N 40°41' W 074°01'0 0.0
2017-Dec-24 11:58N 40°41' W 074°01'0 0.0
2017-Dec-24 11:28N 40°41' W 074°01'0 0.0
2017-Dec-24 11:00N 40°41' W 074°01'0 0.0
2017-Dec-24 10:30N 40°41' W 074°01'0 0.0
2017-Dec-24 09:53N 40°41' W 074°01'0 0.0
2017-Dec-24 09:30N 40°41' W 074°01'0 0.0
2017-Dec-24 08:43N 40°41' W 074°01'0 0.0
2017-Dec-24 08:27N 40°41' W 074°01'0 0.0
2017-Dec-24 07:58N 40°41' W 074°01'0 0.0
2017-Dec-24 07:29N 40°41' W 074°01'0 0.0
2017-Dec-24 06:56N 40°41' W 074°01'0 0.0
2017-Dec-24 06:30N 40°41' W 074°01'0 0.0
2017-Dec-24 05:59N 40°41' W 074°01'0 0.0
2017-Dec-24 05:30N 40°41' W 074°01'0 0.0
2017-Dec-24 04:59N 40°41' W 074°01'0 0.0
2017-Dec-24 04:28N 40°41' W 074°01'0 0.0
2017-Dec-24 03:58N 40°41' W 074°01'0 0.0
2017-Dec-24 03:28N 40°41' W 074°01'0 0.0
2017-Dec-24 03:00N 40°41' W 074°01'0 0.0
2017-Dec-24 02:30N 40°41' W 074°01'0 0.0
2017-Dec-24 01:59N 40°41' W 074°01'0 0.0
2017-Dec-24 01:29N 40°41' W 074°01'0 0.0
2017-Dec-24 00:59N 40°41' W 074°01'0 0.0
2017-Dec-24 00:23N 40°41' W 074°01'0 0.0
2017-Dec-24 00:00N 40°41' W 074°01'0 0.0
2017-Dec-23 23:30N 40°41' W 074°01'0 0.0
2017-Dec-23 22:57N 40°41' W 074°01'0 0.0
2017-Dec-23 22:24N 40°41' W 074°01'0 0.0
2017-Dec-23 21:58N 40°41' W 074°01'0 0.0
2017-Dec-23 21:28N 40°41' W 074°01'0 0.0
2017-Dec-23 20:56N 40°41' W 074°01'0 0.0
2017-Dec-23 20:24N 40°41' W 074°01'0 0.0
2017-Dec-23 19:59N 40°41' W 074°01'0 0.0
2017-Dec-23 19:28N 40°41' W 074°01'0 0.0
2017-Dec-23 18:55N 40°41' W 074°01'0 0.0
2017-Dec-23 18:25N 40°41' W 074°01'0 0.0
2017-Dec-23 17:58N 40°41' W 074°01'0 0.0
2017-Dec-23 17:26N 40°41' W 074°01'0 0.0
2017-Dec-23 16:56N 40°41' W 074°01'0 0.0
2017-Dec-23 16:25N 40°41' W 074°01'0 0.0
2017-Dec-23 15:58N 40°41' W 074°01'0 0.0
2017-Dec-23 15:29N 40°41' W 074°01'0 0.0
2017-Dec-23 14:55N 40°41' W 074°01'0 0.0
2017-Dec-23 14:24N 40°41' W 074°01'0 0.0
2017-Dec-23 13:59N 40°41' W 074°01'0 0.0
2017-Dec-23 13:29N 40°41' W 074°01'0 0.0
2017-Dec-23 12:58N 40°41' W 074°01'0 0.0
2017-Dec-23 12:28N 40°41' W 074°01'0 0.0
2017-Dec-23 11:56N 40°41' W 074°01'0 0.0
2017-Dec-23 11:28N 40°41' W 074°01'0 0.0
2017-Dec-23 10:55N 40°41' W 074°01'0 0.0
2017-Dec-23 10:23N 40°41' W 074°01'0 0.0
2017-Dec-23 09:59N 40°41' W 074°01'0 0.0
2017-Dec-23 09:29N 40°41' W 074°01'0 0.0
2017-Dec-23 08:59N 40°41' W 074°01'0 0.0
2017-Dec-23 08:30N 40°41' W 074°01'0 0.0
2017-Dec-23 07:58N 40°41' W 074°01'0 0.0
2017-Dec-23 07:29N 40°41' W 074°01'0 0.0
2017-Dec-23 06:58N 40°41' W 074°01'0 0.0
2017-Dec-23 06:30N 40°41' W 074°01'0 0.0
2017-Dec-23 05:56N 40°41' W 074°01'0 0.0
2017-Dec-23 05:29N 40°41' W 074°01'0 0.0
2017-Dec-23 05:00N 40°41' W 074°01'0 0.0
2017-Dec-23 04:24N 40°41' W 074°01'0 0.0
2017-Dec-23 03:58N 40°41' W 074°01'0 0.0
2017-Dec-23 03:27N 40°41' W 074°01'0 0.0
2017-Dec-23 02:54N 40°41' W 074°01'0 0.0
2017-Dec-23 02:24N 40°41' W 074°01'0 0.0
2017-Dec-23 01:58N 40°41' W 074°01'0 0.0
2017-Dec-23 01:29N 40°41' W 074°01'0 0.0
2017-Dec-23 00:58N 40°41' W 074°01'0 0.0
2017-Dec-23 00:30N 40°41' W 074°01'0 0.0
2017-Dec-22 23:59N 40°41' W 074°01'0 0.0
2017-Dec-22 23:29N 40°41' W 074°01'0 0.0
2017-Dec-22 22:57N 40°41' W 074°01'0 0.0
2017-Dec-22 22:30N 40°41' W 074°01'0 0.0
2017-Dec-22 22:00N 40°41' W 074°01'0 0.0
2017-Dec-22 21:26N 40°41' W 074°01'0 0.0
2017-Dec-22 20:25N 40°41' W 074°01'0 0.0
2017-Dec-22 19:59N 40°41' W 074°01'0 0.0
2017-Dec-22 19:29N 40°41' W 074°01'0 0.0
2017-Dec-22 19:00N 40°41' W 074°01'0 0.0
2017-Dec-22 18:24N 40°41' W 074°01'0 0.0
2017-Dec-22 17:53N 40°41' W 074°01'0 0.0
2017-Dec-22 17:29N 40°41' W 074°01'0 0.0
2017-Dec-22 16:57N 40°41' W 074°01'0 0.0
2017-Dec-22 16:27N 40°41' W 074°01'0 0.0
2017-Dec-22 15:59N 40°41' W 074°01'0 0.0
2017-Dec-22 15:26N 40°41' W 074°01'0 0.0
2017-Dec-22 15:00N 40°41' W 074°01'0 0.0
2017-Dec-22 14:23N 40°41' W 074°01'0 0.0
2017-Dec-22 14:00N 40°41' W 074°01'0 0.0
2017-Dec-22 13:26N 40°41' W 074°01'0 0.0
2017-Dec-22 12:59N 40°41' W 074°01'0 0.0
2017-Dec-22 12:24N 40°41' W 074°01'0 0.0
2017-Dec-22 11:53N 40°41' W 074°01'0 0.0
2017-Dec-22 11:29N 40°41' W 074°01'0 0.0
2017-Dec-22 10:52N 40°41' W 074°01'0 0.0
2017-Dec-22 10:30N 40°41' W 074°01'0 0.0
2017-Dec-22 09:58N 40°41' W 074°01'0 0.0
2017-Dec-22 09:29N 40°41' W 074°01'0 0.0
2017-Dec-22 09:00N 40°41' W 074°01'0 0.0
2017-Dec-22 08:25N 40°41' W 074°01'  

Dump ship's entire track history